Time;durP1;ratioP1;P1;durP2;ratioP2;P2;SDS_P1;SDS_P2;PMS_P1;PMS_P2;Temp;Humidity;BMP_temperature;BMP_pressure;BME280_temperature;BME280_humidity;BME280_pressure;Samples;Min_cycle;Max_cycle;Signal;HPM_P1;HPM_P2
2021/04/14 00:00:58;;;;;;;2.40;0.75;;;8.10;44.10;;;;;;4991252;28;20046;-79
2021/04/14 00:03:25;;;;;;;1.10;0.38;;;8.10;44.30;;;;;;4993179;28;20035;-79
2021/04/14 00:05:52;;;;;;;0.40;0.10;;;8.10;44.30;;;;;;4992332;28;20038;-79
2021/04/14 00:08:18;;;;;;;1.63;0.15;;;8.10;44.40;;;;;;4992292;28;20022;-80
2021/04/14 00:10:45;;;;;;;3.92;0.20;;;8.10;44.50;;;;;;4992141;28;20471;-79
2021/04/14 00:13:16;;;;;;;1.77;0.28;;;8.00;44.40;;;;;;4992401;28;20390;-79
2021/04/14 00:15:44;;;;;;;0.35;0.10;;;8.00;44.50;;;;;;4991914;28;20029;-79
2021/04/14 00:18:10;;;;;;;0.40;0.10;;;8.00;44.50;;;;;;4992944;28;20033;-79
2021/04/14 00:20:36;;;;;;;5.85;0.75;;;8.00;44.60;;;;;;4991994;28;20403;-80
2021/04/14 00:23:03;;;;;;;2.95;0.40;;;7.90;44.70;;;;;;4983644;28;20030;-79
2021/04/14 00:25:32;;;;;;;1.33;0.40;;;7.90;44.90;;;;;;4955125;28;20050;-79
2021/04/14 00:27:58;;;;;;;0.45;0.20;;;7.90;45.10;;;;;;4975080;28;20038;-79
2021/04/14 00:30:24;;;;;;;2.78;0.70;;;7.90;45.10;;;;;;4992354;28;20026;-79
2021/04/14 00:32:50;;;;;;;1.42;0.57;;;7.90;45.10;;;;;;4995440;28;20027;-79
2021/04/14 00:35:21;;;;;;;8.38;0.40;;;7.90;45.10;;;;;;4992897;28;20037;-80
2021/04/14 00:37:47;;;;;;;0.38;0.10;;;7.80;45.10;;;;;;4990573;28;20026;-80
2021/04/14 00:40:17;;;;;;;0.85;0.30;;;7.80;45.20;;;;;;4975536;28;20384;-79
2021/04/14 00:42:43;;;;;;;0.65;0.38;;;7.80;45.20;;;;;;4975970;28;20050;-80
2021/04/14 00:45:10;;;;;;;0.73;0.20;;;7.80;45.20;;;;;;4991614;28;20403;-80
2021/04/14 00:47:36;;;;;;;0.30;0.10;;;7.80;45.30;;;;;;4991201;28;20435;-79
2021/04/14 00:50:07;;;;;;;0.10;0.08;;;7.80;45.30;;;;;;4995133;28;20038;-79
2021/04/14 00:52:33;;;;;;;4.78;0.50;;;7.70;45.40;;;;;;4979005;28;20026;-79
2021/04/14 00:54:59;;;;;;;1.58;0.60;;;7.70;45.40;;;;;;4996918;28;20398;-79
2021/04/14 00:57:25;;;;;;;0.65;0.65;;;7.60;45.50;;;;;;4996808;28;20038;-80
2021/04/14 00:59:51;;;;;;;1.20;0.40;;;7.70;45.60;;;;;;4996404;28;20402;-79
2021/04/14 01:02:18;;;;;;;1.45;0.68;;;7.60;45.60;;;;;;4996333;28;20042;-79
2021/04/14 01:04:44;;;;;;;5.25;0.38;;;7.60;45.70;;;;;;4994195;28;20049;-79
2021/04/14 01:07:10;;;;;;;1.27;0.75;;;7.60;45.80;;;;;;4996249;28;20041;-79
2021/04/14 01:09:36;;;;;;;1.98;0.52;;;7.50;45.80;;;;;;4994855;28;20037;-79
2021/04/14 01:12:02;;;;;;;2.83;0.68;;;7.50;45.90;;;;;;4995119;28;20038;-79
2021/04/14 01:14:28;;;;;;;0.43;0.15;;;7.50;46.00;;;;;;4995944;28;20391;-79
2021/04/14 01:16:54;;;;;;;0.95;0.15;;;7.50;46.10;;;;;;4995820;28;20027;-79
2021/04/14 01:19:20;;;;;;;1.15;0.65;;;7.40;46.20;;;;;;4995825;28;20490;-79
2021/04/14 01:21:46;;;;;;;1.10;0.28;;;7.30;46.30;;;;;;4995856;28;20057;-79
2021/04/14 01:24:14;;;;;;;0.60;0.22;;;7.30;46.50;;;;;;4995589;28;20037;-79
2021/04/14 01:26:40;;;;;;;0.20;0.13;;;7.20;46.60;;;;;;4993811;28;20099;-79
2021/04/14 01:29:07;;;;;;;0.75;0.38;;;7.20;46.70;;;;;;4994741;28;20490;-79
2021/04/14 01:31:33;;;;;;;0.85;0.13;;;7.20;46.80;;;;;;4993449;28;20046;-79
2021/04/14 01:34:01;;;;;;;0.00;0.00;;;7.10;46.80;;;;;;4995230;28;20034;-79
2021/04/14 01:36:27;;;;;;;0.90;0.60;;;7.10;46.90;;;;;;4995911;28;20025;-79
2021/04/14 01:38:53;;;;;;;0.40;0.30;;;7.10;46.90;;;;;;4994487;28;20030;-79
2021/04/14 01:41:19;;;;;;;0.77;0.10;;;7.10;46.90;;;;;;4994662;28;20042;-80
2021/04/14 01:43:45;;;;;;;0.75;0.30;;;7.00;47.00;;;;;;4994810;28;20033;-79
2021/04/14 01:46:11;;;;;;;5.60;0.47;;;7.00;47.10;;;;;;4995412;28;20065;-79
2021/04/14 01:48:37;;;;;;;0.17;0.10;;;6.90;47.30;;;;;;4995190;28;20026;-79
2021/04/14 01:51:04;;;;;;;1.10;0.50;;;6.90;47.40;;;;;;4995238;28;20030;-79
2021/04/14 01:53:30;;;;;;;1.55;0.55;;;6.80;47.50;;;;;;4994188;28;20045;-79
2021/04/14 01:55:56;;;;;;;2.17;0.43;;;6.80;47.70;;;;;;4994270;28;20377;-80
2021/04/14 01:58:23;;;;;;;1.63;0.57;;;6.70;47.80;;;;;;4994489;28;20391;-79
2021/04/14 02:00:56;;;;;;;0.40;0.30;;;6.70;47.80;;;;;;4993061;28;20069;-80
2021/04/14 02:03:23;;;;;;;9.48;0.70;;;6.70;47.80;;;;;;4985964;28;20201;-79
2021/04/14 02:05:49;;;;;;;0.63;0.45;;;6.70;47.80;;;;;;4983621;28;20315;-79
2021/04/14 02:08:15;;;;;;;5.47;0.77;;;6.70;47.70;;;;;;4989184;28;20411;-80
2021/04/14 02:10:41;;;;;;;0.77;0.40;;;6.70;47.70;;;;;;4992586;28;20019;-80
2021/04/14 02:13:15;;;;;;;0.25;0.15;;;6.70;47.80;;;;;;4989679;28;20038;-79
2021/04/14 02:15:41;;;;;;;0.28;0.10;;;6.70;47.90;;;;;;4988373;28;20034;-80
2021/04/14 02:18:07;;;;;;;1.17;0.45;;;6.70;48.00;;;;;;4973995;28;20034;-80
2021/04/14 02:20:33;;;;;;;3.58;0.77;;;6.60;48.00;;;;;;4987589;28;20030;-80
2021/04/14 02:23:12;;;;;;;1.50;0.40;;;6.60;48.00;;;;;;4972926;28;20108;-79
2021/04/14 02:25:38;;;;;;;0.30;0.20;;;6.60;48.10;;;;;;4989017;28;20502;-79
2021/04/14 02:28:04;;;;;;;1.25;0.20;;;6.70;48.10;;;;;;4988949;28;20061;-79
2021/04/14 02:30:30;;;;;;;0.08;0.00;;;6.60;48.10;;;;;;4988476;28;20042;-79
2021/04/14 02:32:57;;;;;;;0.63;0.28;;;6.60;48.20;;;;;;4990687;28;20480;-79
2021/04/14 02:35:23;;;;;;;0.75;0.50;;;6.50;48.40;;;;;;4987845;28;20051;-79
2021/04/14 02:37:50;;;;;;;1.05;0.30;;;6.50;48.40;;;;;;4992130;28;20057;-79
2021/04/14 02:40:16;;;;;;;0.85;0.38;;;6.50;48.50;;;;;;4993656;28;20038;-79
2021/04/14 02:42:42;;;;;;;1.40;0.77;;;6.50;48.50;;;;;;4994480;28;20042;-79
2021/04/14 02:45:10;;;;;;;0.35;0.13;;;6.50;48.50;;;;;;4994343;28;20027;-79
2021/04/14 02:47:36;;;;;;;0.10;0.00;;;6.50;48.50;;;;;;4994625;28;20046;-79
2021/04/14 02:50:05;;;;;;;0.20;0.15;;;6.50;48.60;;;;;;4994497;28;20390;-79
2021/04/14 02:52:31;;;;;;;0.87;0.40;;;6.40;48.50;;;;;;4992271;28;20475;-79
2021/04/14 02:54:57;;;;;;;0.00;0.00;;;6.50;48.60;;;;;;4994247;28;20050;-79
2021/04/14 02:57:23;;;;;;;0.35;0.20;;;6.40;48.60;;;;;;4994428;28;20034;-79
2021/04/14 02:59:49;;;;;;;5.63;0.50;;;6.40;48.60;;;;;;4993300;28;20372;-79
2021/04/14 03:02:15;;;;;;;0.40;0.10;;;6.40;48.60;;;;;;4993521;28;20035;-79
2021/04/14 03:04:42;;;;;;;2.80;0.75;;;6.40;48.70;;;;;;4991648;28;20042;-79
2021/04/14 03:07:08;;;;;;;0.20;0.05;;;6.40;48.70;;;;;;4993695;28;20033;-79
2021/04/14 03:09:34;;;;;;;1.05;0.68;;;6.40;48.70;;;;;;4992804;28;20033;-79
2021/04/14 03:12:00;;;;;;;0.52;0.10;;;6.40;48.70;;;;;;4994036;28;20050;-79
2021/04/14 03:14:26;;;;;;;0.60;0.43;;;6.40;48.70;;;;;;4993608;28;20035;-79
2021/04/14 03:16:52;;;;;;;1.83;0.70;;;6.40;48.80;;;;;;4993586;28;20030;-79
2021/04/14 03:19:18;;;;;;;0.67;0.47;;;6.40;48.90;;;;;;4990868;28;20030;-79
2021/04/14 03:21:44;;;;;;;2.08;1.08;;;6.30;49.10;;;;;;4991625;28;20042;-79
2021/04/14 03:24:10;;;;;;;0.30;0.20;;;6.30;49.70;;;;;;4973273;28;20079;-79
2021/04/14 03:26:36;;;;;;;0.40;0.10;;;6.20;49.30;;;;;;4981195;28;20384;-79
2021/04/14 03:29:03;;;;;;;0.73;0.47;;;6.10;49.40;;;;;;4993164;28;20029;-79
2021/04/14 03:31:31;;;;;;;0.20;0.17;;;6.10;49.40;;;;;;4959611;28;20034;-79
2021/04/14 03:33:57;;;;;;;2.08;0.65;;;6.10;49.50;;;;;;4975632;28;20042;-79
2021/04/14 03:36:23;;;;;;;0.47;0.20;;;6.00;49.60;;;;;;4992089;28;20034;-79
2021/04/14 03:38:49;;;;;;;0.50;0.10;;;6.00;49.70;;;;;;4987998;28;20046;-79
2021/04/14 03:41:15;;;;;;;0.00;0.00;;;6.00;49.80;;;;;;4993646;28;20035;-79
2021/04/14 03:43:41;;;;;;;0.70;0.30;;;5.90;49.70;;;;;;4991791;28;20197;-79
2021/04/14 03:46:07;;;;;;;2.03;0.73;;;5.90;49.70;;;;;;4992672;28;20046;-79
2021/04/14 03:48:33;;;;;;;0.43;0.27;;;6.00;49.70;;;;;;4991871;28;20042;-79
2021/04/14 03:51:00;;;;;;;0.77;0.40;;;6.00;49.60;;;;;;4976128;28;20491;-79
2021/04/14 03:53:31;;;;;;;0.00;0.00;;;6.00;49.60;;;;;;4991867;28;20029;-79
2021/04/14 03:55:57;;;;;;;1.02;0.60;;;6.00;49.70;;;;;;4992913;28;20030;-79
2021/04/14 03:58:24;;;;;;;0.93;0.60;;;5.90;49.80;;;;;;4992893;28;20030;-80
2021/04/14 04:00:52;;;;;;;0.40;0.10;;;5.90;49.90;;;;;;4992512;28;20249;-82
2021/04/14 04:03:19;;;;;;;0.57;0.37;;;5.80;50.00;;;;;;4990612;28;20541;-78
2021/04/14 04:05:45;;;;;;;0.70;0.13;;;5.80;50.00;;;;;;5007475;28;20061;-78
2021/04/14 04:08:12;;;;;;;0.57;0.30;;;5.80;50.00;;;;;;4991460;28;20026;-78
2021/04/14 04:10:38;;;;;;;0.97;0.57;;;5.80;50.00;;;;;;4990285;28;20034;-79
2021/04/14 04:13:04;;;;;;;1.57;1.07;;;5.80;50.00;;;;;;4993298;28;20050;-79
2021/04/14 04:15:30;;;;;;;1.50;0.63;;;5.80;50.10;;;;;;4992011;28;20042;-80
2021/04/14 04:17:56;;;;;;;1.00;0.40;;;5.80;50.10;;;;;;4991475;28;20034;-79
2021/04/14 04:20:22;;;;;;;0.83;0.30;;;5.80;50.10;;;;;;4993031;28;20041;-80
2021/04/14 04:22:48;;;;;;;4.40;0.50;;;5.80;50.10;;;;;;4990232;28;20507;-78
2021/04/14 04:25:14;;;;;;;1.23;0.40;;;5.80;50.10;;;;;;4962162;28;20046;-78
2021/04/14 04:27:41;;;;;;;1.67;0.93;;;5.80;50.10;;;;;;4995909;28;20030;-79
2021/04/14 04:30:09;;;;;;;1.93;0.40;;;5.70;50.10;;;;;;4977490;28;20038;-77
2021/04/14 04:32:35;;;;;;;1.73;0.37;;;5.70;50.10;;;;;;4996132;28;20464;-77
2021/04/14 04:35:06;;;;;;;1.80;0.67;;;5.70;50.20;;;;;;4994984;28;20030;-78
2021/04/14 04:37:32;;;;;;;0.93;0.10;;;5.70;50.20;;;;;;4979117;28;20049;-77
2021/04/14 04:39:58;;;;;;;1.50;0.47;;;5.70;50.30;;;;;;4995863;28;20037;-77
2021/04/14 04:42:24;;;;;;;1.10;0.53;;;5.70;50.30;;;;;;4996856;28;20402;-77
2021/04/14 04:44:50;;;;;;;3.38;0.70;;;5.70;50.30;;;;;;4995342;28;20039;-79
2021/04/14 04:47:16;;;;;;;0.77;0.57;;;5.70;50.30;;;;;;4992317;28;20042;-79
2021/04/14 04:49:42;;;;;;;0.90;0.47;;;5.60;50.30;;;;;;4995978;28;20030;-78
2021/04/14 04:52:08;;;;;;;3.77;0.10;;;5.60;50.30;;;;;;4996599;28;20038;-78
2021/04/14 04:54:35;;;;;;;1.67;0.43;;;5.60;50.40;;;;;;4996774;28;20038;-77
2021/04/14 04:57:01;;;;;;;2.80;0.50;;;5.60;50.50;;;;;;4996601;28;20522;-77
2021/04/14 04:59:27;;;;;;;3.60;0.63;;;5.50;50.60;;;;;;4994361;28;20030;-77
2021/04/14 05:01:53;;;;;;;4.43;0.87;;;5.50;50.80;;;;;;4995889;28;20054;-79
2021/04/14 05:04:20;;;;;;;1.60;1.07;;;5.40;50.90;;;;;;4994073;28;20404;-78
2021/04/14 05:06:46;;;;;;;2.73;1.20;;;5.40;51.10;;;;;;4995433;28;20484;-77
2021/04/14 05:09:12;;;;;;;1.33;0.83;;;5.30;51.10;;;;;;4996389;28;20034;-77
2021/04/14 05:11:39;;;;;;;3.43;1.00;;;5.30;51.10;;;;;;4996324;28;20033;-78
2021/04/14 05:14:05;;;;;;;1.60;0.83;;;5.30;51.10;;;;;;4995623;28;20042;-78
2021/04/14 05:16:31;;;;;;;0.60;0.27;;;5.30;51.00;;;;;;4993730;28;20038;-78
2021/04/14 05:18:57;;;;;;;1.27;0.47;;;5.30;51.00;;;;;;4995181;28;20042;-77
2021/04/14 05:21:23;;;;;;;1.13;0.57;;;5.30;51.00;;;;;;4996323;28;20030;-77
2021/04/14 05:23:50;;;;;;;0.90;0.67;;;5.40;51.00;;;;;;4995163;28;20042;-78
2021/04/14 05:26:16;;;;;;;1.80;0.43;;;5.30;50.90;;;;;;4994029;28;20042;-78
2021/04/14 05:28:43;;;;;;;0.63;0.30;;;5.40;50.90;;;;;;4994473;28;20038;-79
2021/04/14 05:31:09;;;;;;;2.77;0.93;;;5.40;50.90;;;;;;4977979;28;20048;-78
2021/04/14 05:33:36;;;;;;;5.50;0.83;;;5.40;50.90;;;;;;4995046;28;20026;-78
2021/04/14 05:36:02;;;;;;;0.43;0.27;;;5.50;50.90;;;;;;4993915;28;20042;-78
2021/04/14 05:38:29;;;;;;;1.33;0.60;;;5.50;50.90;;;;;;4995252;28;20034;-79
2021/04/14 05:40:56;;;;;;;1.30;0.50;;;5.50;51.00;;;;;;4994489;28;20053;-79
2021/04/14 05:43:27;;;;;;;1.67;0.43;;;5.50;51.00;;;;;;4994449;28;20035;-78
2021/04/14 05:46:00;;;;;;;1.53;0.73;;;5.40;51.10;;;;;;4993989;28;20058;-78
2021/04/14 05:48:26;;;;;;;0.87;0.63;;;5.40;51.20;;;;;;4994146;28;20034;-78
2021/04/14 05:50:54;;;;;;;0.40;0.23;;;5.30;51.30;;;;;;4993302;28;20051;-79
2021/04/14 05:53:20;;;;;;;1.37;0.40;;;5.30;51.50;;;;;;4991897;28;20030;-79
2021/04/14 05:55:47;;;;;;;0.60;0.30;;;5.40;51.50;;;;;;4994879;28;20379;-79
2021/04/14 05:58:13;;;;;;;0.20;0.20;;;5.40;51.50;;;;;;4993366;28;20403;-78
2021/04/14 06:00:39;;;;;;;0.50;0.27;;;5.50;51.40;;;;;;4994989;28;20030;-78
2021/04/14 06:03:05;;;;;;;0.17;0.07;;;5.50;51.40;;;;;;4992760;28;20050;-79
2021/04/14 06:05:31;;;;;;;0.00;0.00;;;5.60;51.50;;;;;;4993712;28;20229;-79
2021/04/14 06:07:57;;;;;;;3.87;0.27;;;5.60;51.50;;;;;;4995310;28;20041;-79
2021/04/14 06:10:24;;;;;;;0.67;0.33;;;5.60;51.60;;;;;;4992790;28;20045;-79
2021/04/14 06:12:51;;;;;;;0.37;0.20;;;5.70;51.60;;;;;;4993813;28;20042;-79
2021/04/14 06:15:19;;;;;;;0.30;0.10;;;6.00;51.40;;;;;;4993452;28;20034;-80
2021/04/14 06:17:46;;;;;;;1.13;0.67;;;6.20;51.50;;;;;;4993976;28;20043;-81
2021/04/14 06:20:13;;;;;;;1.43;0.87;;;6.40;51.30;;;;;;4990852;28;20091;-80
2021/04/14 06:22:40;;;;;;;1.93;0.40;;;6.60;51.10;;;;;;4994515;28;20054;-81
2021/04/14 06:25:06;;;;;;;0.52;0.40;;;6.80;50.90;;;;;;4990679;28;20026;-80
2021/04/14 06:27:47;;;;;;;0.05;0.00;;;6.90;50.70;;;;;;4973547;28;20387;-81
2021/04/14 06:30:13;;;;;;;0.10;0.05;;;7.00;50.60;;;;;;4975533;28;20053;-80
2021/04/14 06:32:41;;;;;;;0.35;0.10;;;7.20;50.50;;;;;;4990425;28;20022;-81
2021/04/14 06:35:07;;;;;;;0.82;0.30;;;7.30;50.40;;;;;;4975919;28;20022;-81
2021/04/14 06:37:33;;;;;;;0.52;0.38;;;7.40;50.40;;;;;;4994341;28;20033;-80
2021/04/14 06:43:13;;;;;;;0.15;0.00;;;7.70;50.10;;;;;;4989655;28;20053;-82
2021/04/14 06:45:53;;;;;;;1.08;0.50;;;7.80;49.90;;;;;;4989398;28;20050;-79
2021/04/14 06:48:41;;;;;;;1.65;0.32;;;7.90;49.90;;;;;;4974943;28;20030;-82
2021/04/14 06:51:29;;;;;;;0.00;0.00;;;7.90;49.90;;;;;;4989664;28;20368;-82
2021/04/14 06:54:00;;;;;;;0.70;0.17;;;8.00;50.00;;;;;;4992390;28;20395;-81
2021/04/14 06:56:26;;;;;;;0.25;0.25;;;8.10;49.80;;;;;;4989377;28;20529;-81
2021/04/14 06:59:02;;;;;;;0.38;0.30;;;8.20;49.70;;;;;;5024588;28;20026;-82
2021/04/14 07:01:41;;;;;;;0.90;0.17;;;8.20;49.70;;;;;;4991182;28;20053;-82
2021/04/14 07:04:11;;;;;;;1.10;0.57;;;8.30;49.70;;;;;;4992070;28;20068;-82
2021/04/14 07:06:41;;;;;;;0.45;0.28;;;8.50;49.60;;;;;;4989170;28;20034;-80
2021/04/14 07:09:33;;;;;;;0.63;0.30;;;8.70;49.30;;;;;;4954144;28;20043;-80
2021/04/14 07:11:59;;;;;;;0.00;0.00;;;8.80;49.20;;;;;;4982716;28;20285;-80
2021/04/14 07:14:26;;;;;;;1.13;0.30;;;8.80;49.10;;;;;;4966819;28;20031;-80
2021/04/14 07:17:00;;;;;;;3.30;0.45;;;8.90;49.10;;;;;;4990980;28;20030;-80
2021/04/14 07:19:40;;;;;;;2.10;0.47;;;9.00;48.90;;;;;;4990059;28;20479;-79
2021/04/14 07:22:47;;;;;;;1.30;0.55;;;9.10;48.80;;;;;;4989241;28;20038;-80
2021/04/14 07:25:21;;;;;;;1.80;0.77;;;9.10;48.70;;;;;;4991330;28;20038;-80
2021/04/14 07:27:57;;;;;;;0.00;0.00;;;9.30;48.60;;;;;;4972343;28;20034;-84
2021/04/14 07:30:29;;;;;;;3.47;0.65;;;9.40;48.40;;;;;;4982716;28;20057;-79
2021/04/14 07:33:13;;;;;;;1.33;0.60;;;9.50;48.30;;;;;;5004573;28;20364;-80
2021/04/14 07:35:54;;;;;;;0.70;0.40;;;9.60;48.10;;;;;;4990079;28;20022;-81
2021/04/14 07:38:35;;;;;;;;;;;9.80;48.20;;;;;;4978204;28;20038;-87
2021/04/14 07:41:20;;;;;;;0.47;0.20;;;9.90;47.90;;;;;;4992552;28;19909;-82
2021/04/14 07:43:53;;;;;;;2.75;1.13;;;10.10;47.60;;;;;;4989731;28;20038;-80
2021/04/14 07:46:22;;;;;;;0.30;0.00;;;10.30;47.40;;;;;;4973594;28;20061;-80
2021/04/14 07:48:50;;;;;;;2.10;0.70;;;10.40;47.20;;;;;;4992742;28;20050;-80
2021/04/14 07:51:18;;;;;;;1.63;0.70;;;10.50;47.10;;;;;;4991697;28;20026;-80
2021/04/14 07:54:18;;;;;;;0.30;0.22;;;10.60;47.00;;;;;;4993293;28;20045;-80
2021/04/14 07:56:55;;;;;;;0.28;0.22;;;10.70;47.00;;;;;;4991927;28;20035;-81
2021/04/14 07:59:30;;;;;;;1.05;0.40;;;10.80;46.70;;;;;;4992417;28;20046;-80
2021/04/14 08:02:06;;;;;;;0.70;0.13;;;10.90;46.60;;;;;;4993318;28;20417;-80
2021/04/14 08:04:37;;;;;;;1.80;0.80;;;10.90;46.50;;;;;;4992855;28;20415;-80
2021/04/14 08:07:18;;;;;;;0.52;0.10;;;11.10;46.40;;;;;;4993519;28;20041;-81
2021/04/14 08:09:55;;;;;;;1.55;0.10;;;11.30;46.20;;;;;;4992077;28;20038;-83
2021/04/14 08:12:48;;;;;;;1.80;0.52;;;11.50;46.00;;;;;;4992277;28;20034;-83
2021/04/14 08:15:46;;;;;;;0.50;0.30;;;11.70;45.90;;;;;;4989601;28;20051;-84
2021/04/14 08:18:31;;;;;;;0.10;0.00;;;12.00;45.80;;;;;;4973547;28;20041;-81
2021/04/14 08:21:03;;;;;;;0.20;0.10;;;12.30;45.70;;;;;;4992557;28;20313;-82
2021/04/14 08:23:31;;;;;;;0.10;0.00;;;12.50;46.00;;;;;;4993431;28;20069;-81
2021/04/14 08:25:58;;;;;;;1.15;0.30;;;12.70;46.20;;;;;;4992649;28;20518;-81
2021/04/14 08:28:36;;;;;;;0.98;0.35;;;12.90;46.10;;;;;;4991679;28;20026;-82
2021/04/14 08:31:07;;;;;;;0.77;0.20;;;13.20;46.00;;;;;;4991560;28;20037;-82
2021/04/14 08:33:33;;;;;;;0.75;0.00;;;13.40;45.80;;;;;;4977768;28;20034;-82
2021/04/14 08:36:28;;;;;;;0.05;0.03;;;13.40;45.60;;;;;;4993353;28;20034;-80
2021/04/14 08:38:54;;;;;;;0.68;0.50;;;13.40;45.80;;;;;;4991891;28;20057;-82
2021/04/14 08:41:23;;;;;;;0.38;0.25;;;13.50;45.70;;;;;;4976071;28;20035;-79
2021/04/14 08:43:52;;;;;;;0.38;0.20;;;13.50;45.60;;;;;;4990604;28;20042;-83
2021/04/14 08:46:25;;;;;;;0.22;0.22;;;13.50;45.80;;;;;;4989796;28;20047;-80
2021/04/14 08:49:01;;;;;;;2.83;0.32;;;13.60;45.50;;;;;;4991579;28;20034;-81
2021/04/14 08:51:27;;;;;;;0.10;0.10;;;13.70;45.20;;;;;;4992901;28;20037;-82
2021/04/14 08:53:55;;;;;;;2.00;0.32;;;13.80;45.30;;;;;;4991265;28;20399;-81
2021/04/14 08:56:21;;;;;;;0.40;0.08;;;14.00;45.00;;;;;;4991810;28;20034;-81
2021/04/14 08:58:48;;;;;;;0.85;0.30;;;14.10;44.70;;;;;;4991377;28;20049;-81
2021/04/14 09:01:15;;;;;;;1.02;0.15;;;14.20;44.40;;;;;;4958505;28;20046;-81
2021/04/14 09:03:42;;;;;;;6.90;0.52;;;14.20;43.90;;;;;;4991316;28;20080;-83
2021/04/14 09:06:09;;;;;;;0.13;0.00;;;14.20;43.70;;;;;;4974637;28;20062;-82
2021/04/14 09:08:36;;;;;;;0.17;0.00;;;14.20;43.30;;;;;;4991087;28;20031;-79
2021/04/14 09:11:04;;;;;;;0.98;0.35;;;14.20;42.80;;;;;;4990937;28;20053;-79
2021/04/14 09:13:47;;;;;;;0.75;0.43;;;14.10;42.50;;;;;;4994730;28;20038;-79
2021/04/14 09:16:25;;;;;;;0.32;0.10;;;14.00;41.90;;;;;;4981397;28;20045;-79
2021/04/14 09:18:51;;;;;;;0.38;0.10;;;14.00;41.60;;;;;;4994975;28;20026;-79
2021/04/14 09:21:21;;;;;;;0.65;0.22;;;13.90;41.50;;;;;;4975341;28;20388;-81
2021/04/14 09:23:55;;;;;;;0.80;0.30;;;14.00;41.10;;;;;;5008752;28;20403;-81
2021/04/14 09:26:36;;;;;;;0.15;0.00;;;14.10;41.00;;;;;;4996843;28;20502;-79
2021/04/14 09:29:07;;;;;;;0.75;0.10;;;14.20;40.80;;;;;;4992058;28;20030;-82
2021/04/14 09:31:39;;;;;;;0.30;0.10;;;14.20;40.60;;;;;;4976412;28;20026;-82
2021/04/14 09:34:37;;;;;;;0.20;0.00;;;14.40;40.50;;;;;;4996230;28;20495;-83
2021/04/14 09:37:24;;;;;;;0.00;0.00;;;14.50;39.90;;;;;;4989935;28;20043;-80
2021/04/14 09:39:53;;;;;;;0.55;0.25;;;14.60;39.70;;;;;;4991366;28;20038;-83
2021/04/14 09:42:25;;;;;;;0.25;0.10;;;14.60;39.40;;;;;;4988647;28;20041;-78
2021/04/14 09:44:55;;;;;;;0.10;0.00;;;14.70;39.40;;;;;;4990206;28;20053;-81
2021/04/14 09:47:28;;;;;;;1.08;0.20;;;14.70;39.90;;;;;;4964944;28;20047;-80
2021/04/14 09:49:58;;;;;;;0.10;0.00;;;14.90;39.20;;;;;;4976132;28;20039;-79
2021/04/14 09:52:30;;;;;;;0.80;0.17;;;14.90;38.40;;;;;;4976162;28;20048;-78
2021/04/14 09:55:17;;;;;;;5.05;0.50;;;14.90;38.30;;;;;;4979224;28;20034;-81
2021/04/14 09:57:46;;;;;;;0.00;0.00;;;14.90;38.00;;;;;;5005117;28;20419;-77
2021/04/14 10:00:16;;;;;;;0.30;0.17;;;14.90;37.90;;;;;;4970514;28;20026;-83
2021/04/14 10:02:44;;;;;;;0.05;0.03;;;15.00;37.20;;;;;;4986243;28;20046;-84
2021/04/14 10:05:10;;;;;;;0.43;0.05;;;14.90;36.80;;;;;;4957887;28;20046;-85
2021/04/14 10:07:38;;;;;;;0.00;0.00;;;14.90;36.40;;;;;;4976466;28;20045;-82
2021/04/14 10:10:20;;;;;;;0.10;0.03;;;14.80;36.00;;;;;;4970445;28;20480;-83
2021/04/14 10:12:46;;;;;;;0.25;0.10;;;14.80;35.90;;;;;;4985060;28;20030;-83
2021/04/14 10:15:13;;;;;;;0.00;0.00;;;14.80;35.80;;;;;;4987910;28;20082;-84
2021/04/14 10:17:39;;;;;;;0.30;0.15;;;14.80;35.60;;;;;;4974731;28;20471;-85
2021/04/14 10:20:11;;;;;;;0.52;0.15;;;14.80;35.60;;;;;;4993597;28;20034;-82
2021/04/14 10:22:49;;;;;;;0.30;0.25;;;14.80;35.70;;;;;;4991587;28;20026;-80
2021/04/14 10:25:28;;;;;;;1.35;0.30;;;14.90;35.40;;;;;;5011902;28;20060;-84
2021/04/14 10:28:16;;;;;;;8.15;0.38;;;14.90;35.00;;;;;;4993564;28;20041;-83
2021/04/14 10:30:46;;;;;;;0.00;0.00;;;15.00;35.20;;;;;;4994631;28;20114;-81
2021/04/14 10:33:20;;;;;;;1.02;0.20;;;15.00;35.00;;;;;;4993087;28;20037;-80
2021/04/14 10:35:48;;;;;;;1.25;0.10;;;15.20;35.20;;;;;;4992380;28;20550;-80
2021/04/14 10:38:14;;;;;;;0.63;0.20;;;15.30;34.80;;;;;;4993843;28;20022;-85
2021/04/14 10:40:44;;;;;;;0.22;0.00;;;15.40;34.50;;;;;;4974915;28;20053;-75
2021/04/14 10:43:12;;;;;;;0.00;0.00;;;15.20;34.10;;;;;;4994283;28;20523;-83
2021/04/14 10:45:54;;;;;;;0.13;0.00;;;15.10;34.10;;;;;;4993159;28;20038;-80
2021/04/14 10:48:20;;;;;;;0.17;0.00;;;15.20;34.10;;;;;;4992961;28;20030;-78
2021/04/14 10:50:46;;;;;;;0.38;0.17;;;15.10;33.60;;;;;;4995114;28;20415;-77
2021/04/14 10:53:13;;;;;;;0.00;0.00;;;15.10;33.50;;;;;;4993437;28;20030;-82
2021/04/14 10:55:41;;;;;;;0.13;0.10;;;15.20;33.30;;;;;;4975897;28;20046;-78
2021/04/14 10:58:08;;;;;;;9.13;0.22;;;15.20;32.90;;;;;;4992339;28;20033;-78
2021/04/14 11:00:36;;;;;;;0.30;0.20;;;15.20;32.60;;;;;;4992261;28;20081;-80
2021/04/14 11:03:10;;;;;;;0.55;0.25;;;15.20;32.60;;;;;;4992510;28;20045;-78
2021/04/14 11:05:38;;;;;;;0.38;0.00;;;15.20;32.40;;;;;;4980037;28;20050;-77
2021/04/14 11:08:05;;;;;;;0.13;0.00;;;15.20;32.10;;;;;;4976093;28;20049;-77
2021/04/14 11:10:36;;;;;;;2.38;0.13;;;15.30;32.30;;;;;;4975110;28;20053;-78
2021/04/14 11:13:03;;;;;;;3.10;0.30;;;15.30;32.20;;;;;;4992436;28;20507;-79
2021/04/14 11:15:32;;;;;;;0.57;0.10;;;15.40;32.10;;;;;;4991702;28;20034;-78
2021/04/14 11:18:00;;;;;;;1.05;0.15;;;15.40;32.00;;;;;;4991990;28;20022;-77
2021/04/14 11:20:38;;;;;;;0.68;0.35;;;15.50;32.00;;;;;;4976104;28;20049;-78
2021/04/14 11:23:17;;;;;;;0.20;0.10;;;15.50;32.10;;;;;;4992092;28;20033;-77
2021/04/14 11:25:43;;;;;;;0.38;0.17;;;15.60;32.00;;;;;;4988438;28;20480;-84
2021/04/14 11:28:11;;;;;;;0.10;0.03;;;15.70;31.90;;;;;;4976368;28;20026;-78
2021/04/14 11:30:57;;;;;;;0.20;0.00;;;15.80;31.60;;;;;;4992486;28;20038;-80
2021/04/14 11:33:34;;;;;;;0.10;0.00;;;15.70;31.20;;;;;;4966835;28;20030;-83
2021/04/14 11:36:00;;;;;;;0.00;0.00;;;15.80;31.30;;;;;;4974932;28;20380;-83
2021/04/14 11:38:34;;;;;;;0.43;0.15;;;15.90;31.40;;;;;;4991601;28;20395;-83
2021/04/14 11:41:11;;;;;;;1.05;0.30;;;15.90;31.10;;;;;;4992690;28;20026;-83
2021/04/14 11:43:40;;;;;;;0.00;0.00;;;15.90;30.80;;;;;;5006534;28;20049;-83
2021/04/14 11:46:23;;;;;;;0.17;0.10;;;15.90;30.80;;;;;;4992494;28;20066;-83
2021/04/14 11:48:57;;;;;;;1.23;0.30;;;15.90;31.50;;;;;;4992672;28;20037;-81
2021/04/14 11:51:28;;;;;;;0.80;0.00;;;15.90;30.80;;;;;;4991093;28;20407;-82
2021/04/14 11:53:56;;;;;;;0.10;0.00;;;15.90;30.80;;;;;;4991747;28;20034;-77
2021/04/14 11:56:48;;;;;;;0.00;0.00;;;15.90;30.80;;;;;;4992195;28;20289;-80
2021/04/14 11:59:28;;;;;;;2.63;0.43;;;15.90;30.70;;;;;;4977012;28;22483;-80
2021/04/14 12:02:13;;;;;;;0.98;0.15;;;15.90;30.60;;;;;;4991345;28;20034;-79
2021/04/14 12:04:40;;;;;;;0.28;0.10;;;15.90;30.60;;;;;;4992306;28;20069;-80
2021/04/14 12:07:06;;;;;;;0.10;0.10;;;15.90;30.30;;;;;;4975611;28;20038;-80
2021/04/14 12:09:32;;;;;;;0.17;0.00;;;15.90;30.30;;;;;;4975567;28;20035;-80
2021/04/14 12:12:04;;;;;;;0.00;0.00;;;15.80;30.30;;;;;;4991486;28;20030;-80
2021/04/14 12:14:30;;;;;;;0.73;0.22;;;15.90;30.40;;;;;;4991834;28;20049;-84
2021/04/14 12:16:56;;;;;;;0.00;0.00;;;16.00;30.20;;;;;;4990822;28;20034;-80
2021/04/14 12:19:22;;;;;;;0.45;0.20;;;15.90;30.10;;;;;;4958707;28;20038;-80
2021/04/14 12:21:49;;;;;;;0.20;0.10;;;16.00;30.00;;;;;;4991383;28;20391;-80
2021/04/14 12:24:16;;;;;;;0.65;0.30;;;15.90;30.10;;;;;;4991602;28;20034;-80
2021/04/14 12:26:42;;;;;;;1.80;0.15;;;15.90;30.10;;;;;;4990871;28;20080;-80
2021/04/14 12:29:08;;;;;;;0.20;0.10;;;15.80;30.00;;;;;;4976577;28;20072;-80
2021/04/14 12:31:34;;;;;;;0.40;0.25;;;15.80;30.00;;;;;;4973696;28;20031;-80
2021/04/14 12:34:00;;;;;;;0.10;0.00;;;15.80;30.10;;;;;;4991784;28;20051;-80
2021/04/14 12:36:27;;;;;;;0.08;0.00;;;15.90;30.10;;;;;;4991132;28;20045;-80
2021/04/14 12:38:53;;;;;;;0.50;0.30;;;15.90;30.00;;;;;;4991627;28;20403;-81
2021/04/14 12:41:19;;;;;;;0.13;0.00;;;15.90;29.90;;;;;;4991446;28;20026;-80
2021/04/14 12:43:45;;;;;;;0.30;0.10;;;16.00;29.80;;;;;;4973892;28;20054;-81
2021/04/14 12:46:11;;;;;;;0.30;0.28;;;15.90;29.50;;;;;;4977616;28;20511;-80
2021/04/14 12:48:39;;;;;;;1.38;0.63;;;15.80;29.50;;;;;;4995583;28;20038;-79
2021/04/14 12:51:14;;;;;;;0.25;0.17;;;15.80;29.60;;;;;;4995680;28;20467;-79
2021/04/14 12:53:58;;;;;;;1.25;0.30;;;16.00;29.60;;;;;;4979992;28;20045;-80
2021/04/14 12:56:27;;;;;;;0.50;0.35;;;16.00;29.30;;;;;;4979250;28;20042;-83
2021/04/14 12:58:54;;;;;;;1.65;0.30;;;16.00;29.40;;;;;;4993955;28;20494;-80
2021/04/14 13:01:20;;;;;;;0.00;0.00;;;16.00;29.40;;;;;;4979874;28;20034;-79
2021/04/14 13:03:52;;;;;;;0.60;0.20;;;16.10;29.50;;;;;;4994280;28;20034;-80
2021/04/14 13:06:30;;;;;;;0.28;0.13;;;16.10;29.50;;;;;;5010473;28;20030;-79
2021/04/14 13:08:57;;;;;;;0.28;0.10;;;16.30;29.60;;;;;;4980247;28;20510;-81